• Join FlightAware (Why Join?)
  • Login
  • US Flag 
08:27PM EST


 

Airport Tracker/Info


-or-


 

Live Flight TrackerFlight Track Log ✈ N816BG ✈ 22-Jun-2014 ✈ KGRR - KTEB

Flight Track Log - Related Links

Times and Time Zones

All times are in EDT time to prevent confusion due to time zone crossing. See the N816BG flight status page for this flight to view local times or setup timezone preferences in your user account.

Time Position Orientation Groundspeed Altitude Reporting Facility
EDT Latitude Longitude Course Direction KTS MPH feet Rate Location/Type
07:20AM 42.8375 -85.4986 97° East 192 221 2,700  Level Cleveland Center
07:20AM 42.8342 -85.4067 93° East 255 293 5,500 3,000 Climbing Chicago Center
07:21AM 42.8267 -85.3031 96° East 272 313 8,300 2,876 Climbing Chicago Center
07:22AM 42.8178 -85.1925 96° East 288 331 11,300 2,557 Climbing Chicago Center
07:23AM 42.8089 -85.0756 96° East 304 350 13,500 2,213 Climbing Chicago Center
07:24AM 42.8003 -84.9519 95° East 322 371 15,800 2,164 Climbing Chicago Center
07:25AM 42.7968 -84.6306 97° East  Level FlightAware Approximate
07:25AM 42.7892 -84.8261 97° East 331 381 17,900  Level Chicago Center
07:27AM 42.7767 -84.6703 96° East 342 394 20,300 1,864 Climbing Cleveland Center
07:28AM 42.7653 -84.5381 97° East 352 405 22,000 1,475 Climbing Cleveland Center
07:29AM 42.7539 -84.4031 97° East 357 411 23,300 1,279 Climbing Cleveland Center
07:30AM 42.7428 -84.2606 96° East 369 425 24,600 1,180 Climbing Cleveland Center
07:31AM 42.7253 -84.1183 99° East 379 436 25,700 1,033 Climbing Cleveland Center
07:32AM 42.7100 -83.9717 98° East 386 444 26,700 836 Climbing Cleveland Center
07:33AM 42.6925 -83.8217 99° East 398 458 27,400 885 Climbing Cleveland Center
07:34AM 42.6758 -83.6678 98° East 406 467 28,500 1,131 Climbing Cleveland Center
07:35AM 42.6556 -83.4844 98° East 407 468 29,700 744 Climbing Cleveland Center
07:36AM 42.6372 -83.3275 99° East 416 479 30,000 149 Climbing Cleveland Center
07:37AM 42.6181 -83.1619 99° East 436 502 30,000 492 Level Cleveland Center
07:38AM 42.5981 -82.9928 99° East 448 516 31,000 1,082 Climbing Cleveland Center
07:39AM 42.5781 -82.8331 100° East 434 499 32,200 1,131 Climbing Cleveland Center
07:40AM 42.5589 -82.6769 99° East 424 488 33,300 1,082 Climbing Cleveland Center
07:41AM 42.5417 -82.5267 99° East 408 470 34,400 885 Climbing Cleveland Center
07:42AM 42.5222 -82.3806 100° East 400 460 35,100 639 Climbing Cleveland Center
07:43AM 42.5056 -82.2328 99° East 398 458 35,700 541 Climbing Cleveland Center
07:44AM 42.4850 -82.0842 101° East 398 458 36,200 443 Climbing Cleveland Center
07:45AM 42.4667 -81.9361 99° East 398 458 36,600 393 Climbing Cleveland Center
07:46AM 42.4458 -81.7742 100° East 402 463 37,000 197 Climbing Cleveland Center
07:47AM 42.4256 -81.6189 100° East 413 475 37,000  Level Cleveland Center
07:48AM 42.4042 -81.4597 100° East 423 487 37,000  Level Cleveland Center
07:49AM 42.3825 -81.2961 100° East 434 499 37,000  Level Cleveland Center
07:50AM 42.3608 -81.1286 100° East 444 511 37,000  Level Cleveland Center
07:51AM 42.3367 -80.9572 101° East 455 524 37,000  Level Cleveland Center
07:52AM 42.3139 -80.7864 100° East 456 525 37,000  Level Cleveland Center
07:53AM 42.2889 -80.6131 101° East 463 533 37,000  Level Cleveland Center
07:54AM 42.2650 -80.4392 100° East 464 534 37,000  Level Cleveland Center
07:55AM 42.2400 -80.2636 101° East 472 543 37,000  Level Cleveland Center
07:56AM 42.2142 -80.0883 101° East 472 543 37,000  Level Cleveland Center
07:57AM 42.1856 -79.8956 101° East 473 544 37,000  Level Cleveland Center
07:58AM 42.1594 -79.7214 101° East 475 547 37,000  Level Cleveland Center
07:59AM 42.1333 -79.5475 101° East 475 547 37,000  Level Cleveland Center
08:00AM 42.1069 -79.3719 101° East 477 549 37,000  Level Cleveland Center
08:01AM 42.0800 -79.1967 102° East 478 550 37,000 -98 Level Cleveland Center
08:02AM 42.0522 -79.0214 102° East 479 551 36,800 -590 Descending Cleveland Center
08:03AM 42.0247 -78.8417 102° East 488 562 35,800 -984 Descending Cleveland Center
08:04AM 41.9964 -78.6622 102° East 489 563 34,800 -1,033 Descending Cleveland Center
08:05AM 41.9675 -78.4806 102° East 495 570 33,700 -1,033 Descending Cleveland Center
08:06AM 41.9378 -78.2986 102° East 495 570 32,700 -1,131 Descending Cleveland Center
08:07AM 41.9022 -78.0833 102° East 495 570 31,400 -1,180 Descending Cleveland Center
08:08AM 41.8742 -77.9050 102° East 495 570 30,300 -1,024 Descending Cleveland Center
08:09AM 41.8331 -77.7317 108° East 493 567 29,300 -634 Descending Cleveland Center
08:10AM 41.7869 -77.5611 110° East 491 565 29,000 -148 Descending Cleveland Center
08:11AM 41.7481 -77.4117 109° East 489 563 29,000  Level Cleveland Center
08:12AM 41.6939 -77.2075 109° East 489 563 29,000 -492 Level Cleveland Center
08:13AM 41.6481 -77.0397 110° East 486 559 28,000 -934 Descending Cleveland Center
08:14AM 41.6022 -76.8711 110° East 485 558 27,100 -934 Descending Cleveland Center
08:15AM 41.5606 -76.7186 110° East 484 557 26,100 -983 Descending Cleveland Center
08:16AM 41.5175 -76.5642 110° East 472 543 25,200 -991 Descending New York Center
08:17AM 41.4714 -76.3997 110° East 472 543 24,200 -1,200 Descending New York Center
08:18AM 41.4236 -76.2186 109° East 472 543 22,800 -1,700 Descending New York Center
08:19AM 41.3767 -76.0600 111° Southeast 472 543 20,800 -2,000 Descending New York Center
08:20AM 41.3331 -75.9100 111° Southeast 449 517 18,800 -1,950 Descending New York Center
08:21AM 41.2936 -75.7633 110° East 433 498 16,900 -1,950 Descending New York Center
08:22AM 41.2514 -75.6250 112° Southeast 406 467 14,900 -1,900 Descending New York Center
08:23AM 41.2069 -75.4894 114° Southeast 400 460 13,100 -1,650 Descending New York Center
08:24AM 41.1619 -75.3597 115° Southeast 391 450 11,600 -1,250 Descending New York Center
08:25AM 41.1247 -75.2469 114° Southeast 383 441 10,600 -1,500 Descending New York Center
08:26AM 41.0853 -75.1289 114° Southeast 336 387 8,600 -1,950 Descending New York Center
08:27AM 41.0472 -75.0328 118° Southeast 298 343 6,700 -1,300 Descending New York Center
08:28AM 41.0083 -74.9561 124° Southeast 283 326 6,000 -900 Descending New York Center
08:29AM 40.9700 -74.8603 118° Southeast 283 326 4,900 -1,000 Descending New York Center
08:30AM 40.9314 -74.7700 119° Southeast 271 312 4,000 -450 Descending New York Center
08:31AM 40.8986 -74.6939 120° Southeast 266 306 4,000 -500 Level New York Center
08:32AM 40.8597 -74.6039 120° Southeast 255 293 3,000 -500 Descending New York Center
08:33AM 40.8267 -74.5336 122° Southeast 255 293 3,000  Level New York Center
08:34AM 40.7897 -74.4467 119° Southeast 255 293 3,000 -200 Level New York Center
08:35AM 40.7506 -74.3650 122° Southeast 261 300 2,600 -540 Descending New York Center
08:36AM 40.7333 -74.3167 115° Southeast 252 290 2,100 -600 Descending New York TRACON
08:37AM 40.7500 -74.2333 75° East 220 253 1,600 -250 Descending New York TRACON
08:38AM 40.7833 -74.1667 57° Northeast 185 213 1,600 -53 Level New York TRACON
08:39AM 40.8000 -74.1333 57° Northeast 146 168 1,500 -444 Descending New York TRACON
08:40AM 40.8167 -74.1000 57° Northeast 132 152 800 -778 Descending New York TRACON
08:42AM 40.8500 -74.0500 69° East  Level FlightAware Approximate
08:49AM 40.8501 -74.0608 271° West  Level Estimated
08:50AM 40.8501 -74.0608 69° East  Level Estimated